This is the latest recevied weather packets stored in our database for station/object KA7KDX-4. If no packets are shown the sender has not sent any weather packets the latest 1 day(s).
| Time | Temp. | Humidity | Pressure | Rain* | Wind** | Luminosity | Snow |
|---|---|---|---|---|---|---|---|
| 1778098806 | 13.89° C | 25% | 1017 hPa | 0 mm | - | - | - |
| 1778098506 | 13.89° C | 25% | 1017 hPa | 0 mm | - | - | - |
| 1778096106 | 13.33° C | 24% | 1017.3 hPa | 0 mm | - | - | - |
| 1778095506 | 12.78° C | 25% | 1017.3 hPa | 0 mm | - | - | - |
| 1778093706 | 12.78° C | 23% | 1017.2 hPa | 0 mm | - | - | - |
| 1778093106 | 12.78° C | 20% | 1017.4 hPa | 0 mm | - | - | - |
| 1778092806 | 12.78° C | 21% | 1017.4 hPa | 0 mm | - | - | - |
| 1778090406 | 12.22° C | 26% | 1017.7 hPa | 0 mm | - | - | - |
| 1778090106 | 12.22° C | 26% | 1017.8 hPa | 0 mm | - | - | - |
| 1778089806 | 12.22° C | 30% | 1017.8 hPa | 0 mm | - | - | - |
| 1778087706 | 11.67° C | 31% | 1017.8 hPa | 0 mm | - | - | - |
| 1778087406 | 11.67° C | 33% | 1017.8 hPa | 0 mm | - | - | - |
| 1778087106 | 11.67° C | 32% | 1017.6 hPa | 0 mm | - | - | - |
| 1778084706 | 11.67° C | 29% | 1017 hPa | 0 mm | - | - | - |
| 1778084406 | 11.67° C | 30% | 1017 hPa | 0 mm | - | - | - |
| 1778081706 | 11.67° C | 38% | 1016.7 hPa | 0 mm | - | - | - |
| 1778081406 | 11.67° C | 38% | 1016.6 hPa | 0 mm | - | - | - |
| 1778081106 | 11.67° C | 39% | 1016.5 hPa | 0 mm | - | - | - |
| 1778079305 | 11.11° C | 37% | 1016.2 hPa | 0 mm | - | - | - |
| 1778078706 | 11.11° C | 36% | 1016.2 hPa | 0 mm | - | - | - |
| 1778078406 | 11.11° C | 37% | 1016.3 hPa | 0 mm | - | - | - |
| 1778078106 | 11.11° C | 36% | 1016.3 hPa | 0 mm | - | - | - |
| 1778075706 | 10° C | 53% | 1016.6 hPa | 0 mm | - | - | - |
| 1778075406 | 9.44° C | 58% | 1016.7 hPa | 0 mm | - | - | - |
| 1778073306 | 8.89° C | 67% | 1016.7 hPa | 0 mm | - | - | - |
* Rain latest hour (hover to see other rain measurements)
** Current wind speed in m/s (hover to see current wind gust speed)